createdAt,value
2024-05-09T00:04:04.434Z,4.57
2024-05-09T00:09:09.197Z,4.60
2024-05-09T00:14:13.986Z,4.40
2024-05-09T00:19:18.859Z,4.87
2024-05-09T00:24:23.741Z,4.73
2024-05-09T00:29:28.640Z,4.53
2024-05-09T00:34:33.544Z,4.60
2024-05-09T00:39:38.222Z,4.80
2024-05-09T00:44:42.951Z,5.97
2024-05-09T00:49:49.092Z,6.10
2024-05-09T00:54:54.060Z,5.23
2024-05-09T00:59:59.303Z,5.50
2024-05-09T01:05:05.082Z,4.87
2024-05-09T01:10:14.319Z,5.07
2024-05-09T01:15:25.735Z,5.43
2024-05-09T01:20:39.681Z,5.47
2024-05-09T01:25:48.287Z,4.83
2024-05-09T01:30:53.042Z,4.17
2024-05-09T01:35:57.748Z,5.57
2024-05-09T01:41:02.831Z,5.00
2024-05-09T01:46:07.702Z,4.73
2024-05-09T01:51:12.961Z,5.57
2024-05-09T01:56:17.820Z,5.70
2024-05-09T02:01:22.646Z,5.30
2024-05-09T02:06:27.373Z,4.20
2024-05-09T02:11:32.223Z,5.83
2024-05-09T02:16:36.981Z,4.33
2024-05-09T02:21:41.749Z,5.30
2024-05-09T02:26:46.416Z,5.80
2024-05-09T02:31:51.189Z,4.60
2024-05-09T02:36:56.579Z,4.40
2024-05-09T02:42:01.277Z,5.17
2024-05-09T02:47:06.124Z,4.37
2024-05-09T02:52:11.011Z,4.70
2024-05-09T02:57:15.832Z,4.20
2024-05-09T03:02:20.622Z,4.10
2024-05-09T03:07:25.348Z,4.43
2024-05-09T03:12:31.353Z,4.37
2024-05-09T03:17:36.512Z,4.20
2024-05-09T03:22:41.360Z,4.60
2024-05-09T03:27:46.047Z,4.33
2024-05-09T03:32:50.904Z,4.37
2024-05-09T03:37:55.731Z,4.10
2024-05-09T03:43:00.444Z,4.10
2024-05-09T03:48:05.341Z,4.10
2024-05-09T03:53:13.755Z,3.70
2024-05-09T03:58:19.229Z,3.60
2024-05-09T04:03:24.173Z,4.10
2024-05-09T04:08:30.583Z,3.87
2024-05-09T04:13:35.420Z,3.63
2024-05-09T04:18:41.032Z,3.50
2024-05-09T04:23:45.842Z,3.50
2024-05-09T04:28:50.609Z,3.17
2024-05-09T04:33:55.457Z,3.00
2024-05-09T04:39:00.314Z,3.40
2024-05-09T04:44:05.062Z,3.27
2024-05-09T04:49:09.967Z,3.30
2024-05-09T04:54:26.071Z,2.93
2024-05-09T04:59:39.186Z,3.03
2024-05-09T05:04:43.995Z,3.37
2024-05-09T05:09:48.798Z,3.10
2024-05-09T05:14:53.504Z,3.03
2024-05-09T05:19:58.806Z,2.97
2024-05-09T05:25:03.511Z,3.13
2024-05-09T05:30:14.670Z,3.83
2024-05-09T05:35:22.618Z,3.90
2024-05-09T05:40:33.477Z,3.23
2024-05-09T05:45:41.590Z,3.73
2024-05-09T05:50:47.139Z,3.77
2024-05-09T05:55:52.035Z,3.60
2024-05-09T06:00:56.806Z,3.80
2024-05-09T06:06:05.673Z,3.97
2024-05-09T06:11:10.543Z,4.07
2024-05-09T06:16:15.300Z,3.97
2024-05-09T06:21:20.280Z,3.77
2024-05-09T06:26:25.008Z,4.00
2024-05-09T06:31:29.917Z,4.03
2024-05-09T06:36:34.583Z,4.00
2024-05-09T06:41:39.281Z,3.90
2024-05-09T06:46:45.566Z,4.07
2024-05-09T06:51:50.389Z,4.30
2024-05-09T06:56:55.096Z,4.60
2024-05-09T07:01:59.839Z,3.90
2024-05-09T07:07:04.524Z,4.30
2024-05-09T07:12:09.585Z,4.07
2024-05-09T07:17:14.631Z,4.23
2024-05-09T07:22:19.411Z,4.50
2024-05-09T07:27:27.906Z,4.70
2024-05-09T07:32:32.686Z,4.10
2024-05-09T07:37:37.506Z,4.40
2024-05-09T07:42:42.283Z,5.63
2024-05-09T07:49:13.059Z,4.90
2024-05-09T07:53:37.174Z,4.80
2024-05-09T07:58:36.568Z,4.60
2024-05-09T08:03:41.630Z,4.30
2024-05-09T08:08:48.465Z,4.60
2024-05-09T08:13:53.147Z,4.60
2024-05-09T08:18:58.142Z,4.63
2024-05-09T08:24:02.952Z,5.13
2024-05-09T08:29:07.672Z,4.60
2024-05-09T08:34:12.608Z,4.87
2024-05-09T08:39:17.368Z,4.20
2024-05-09T08:44:23.359Z,4.80
2024-05-09T08:49:29.319Z,4.13
2024-05-09T08:54:34.107Z,4.47
2024-05-09T08:59:39.324Z,4.70
2024-05-09T09:04:50.821Z,4.33
2024-05-09T09:09:55.695Z,4.90
2024-05-09T09:15:00.457Z,5.60
2024-05-09T09:20:07.072Z,5.03
2024-05-09T09:25:16.033Z,4.97
2024-05-09T09:30:34.040Z,4.43
2024-05-09T09:35:43.125Z,3.87
2024-05-09T09:40:50.054Z,4.80
2024-05-09T09:45:56.087Z,4.83
2024-05-09T09:51:01.289Z,5.03
2024-05-09T09:56:06.407Z,4.30
2024-05-09T10:01:11.198Z,4.60
2024-05-09T10:06:17.106Z,6.10
2024-05-09T10:11:23.619Z,4.37
2024-05-09T10:16:33.994Z,4.90
2024-05-09T10:21:49.552Z,5.20
2024-05-09T10:26:56.114Z,4.37
2024-05-09T10:32:02.710Z,4.30
2024-05-09T10:37:07.516Z,4.87
2024-05-09T10:42:12.875Z,4.77
2024-05-09T10:47:18.615Z,5.70
2024-05-09T10:52:24.093Z,4.57
2024-05-09T10:57:28.902Z,4.97
2024-05-09T11:02:34.724Z,4.80
2024-05-09T11:07:39.701Z,5.20
2024-05-09T11:12:47.766Z,4.67
2024-05-09T11:17:52.621Z,4.60
2024-05-09T11:22:57.447Z,4.07
2024-05-09T11:28:03.575Z,3.80
2024-05-09T11:33:08.725Z,4.23
2024-05-09T11:38:13.490Z,4.70
2024-05-09T11:43:21.202Z,4.20
2024-05-09T11:48:27.404Z,3.87
2024-05-09T11:53:32.413Z,4.03
2024-05-09T11:58:39.504Z,5.83
2024-05-09T12:03:44.417Z,4.80
2024-05-09T12:08:49.563Z,5.27
2024-05-09T12:13:54.264Z,6.77
2024-05-09T12:18:59.296Z,6.07
2024-05-09T12:24:04.161Z,4.90
2024-05-09T12:29:08.930Z,4.67
2024-05-09T12:34:13.747Z,5.20
2024-05-09T12:39:18.614Z,5.80
2024-05-09T12:44:23.474Z,4.67
2024-05-09T12:49:28.398Z,5.00
2024-05-09T12:54:33.773Z,4.77
2024-05-09T12:59:38.569Z,4.63
2024-05-09T13:04:43.330Z,4.80
2024-05-09T13:09:48.158Z,4.80
2024-05-09T13:14:52.856Z,4.00
2024-05-09T13:19:57.729Z,4.93
2024-05-09T13:25:02.478Z,5.20
2024-05-09T13:30:14.542Z,5.27
2024-05-09T13:35:22.570Z,6.43
2024-05-09T13:40:33.082Z,5.17
2024-05-09T13:45:40.371Z,5.73
2024-05-09T13:50:45.344Z,5.73
2024-05-09T13:55:50.518Z,7.17
2024-05-09T14:00:55.392Z,5.60
2024-05-09T14:06:00.293Z,5.27
2024-05-09T14:11:05.115Z,4.70
2024-05-09T14:16:10.388Z,4.33
2024-05-09T14:21:15.206Z,4.90
2024-05-09T14:26:20.194Z,4.60
2024-05-09T14:31:25.178Z,4.23
2024-05-09T14:36:29.951Z,4.57
2024-05-09T14:41:34.626Z,4.20
2024-05-09T14:46:39.335Z,4.40
2024-05-09T14:51:50.376Z,3.70
2024-05-09T14:56:55.263Z,3.60
2024-05-09T15:02:00.093Z,3.03
2024-05-09T15:07:05.084Z,3.60
2024-05-09T15:12:10.195Z,3.17
2024-05-09T15:17:15.042Z,3.57
2024-05-09T15:22:20.555Z,3.60
2024-05-09T15:27:25.406Z,3.50
2024-05-09T15:32:30.189Z,3.53
2024-05-09T15:37:35.295Z,3.63
2024-05-09T15:42:42.730Z,2.93
2024-05-09T15:47:48.260Z,2.97
2024-05-09T15:52:53.117Z,3.43
2024-05-09T15:57:57.942Z,3.50
2024-05-09T16:03:02.697Z,4.40
2024-05-09T16:08:08.743Z,3.80
2024-05-09T16:13:16.649Z,4.60
2024-05-09T16:18:22.489Z,4.90
2024-05-09T16:23:27.283Z,3.97
2024-05-09T16:28:32.135Z,3.70
2024-05-09T16:33:37.206Z,3.70
2024-05-09T16:38:43.183Z,4.53
2024-05-09T16:43:47.942Z,3.97
2024-05-09T16:48:53.355Z,3.97
2024-05-09T16:53:58.611Z,3.97
2024-05-09T16:59:03.475Z,4.67
2024-05-09T17:04:08.506Z,4.43
2024-05-09T17:09:15.679Z,4.47
2024-05-09T17:14:24.246Z,3.97
2024-05-09T17:19:29.054Z,4.10
2024-05-09T17:24:33.895Z,3.70
2024-05-09T17:29:38.725Z,4.80
2024-05-09T17:34:43.461Z,4.37
2024-05-09T17:39:49.598Z,3.93
2024-05-09T17:44:54.330Z,4.03
2024-05-09T17:49:59.425Z,4.10
2024-05-09T17:55:04.247Z,3.83
2024-05-09T18:00:11.873Z,4.17
2024-05-09T18:05:19.730Z,4.17
2024-05-09T18:10:32.804Z,3.90
2024-05-09T18:15:42.284Z,3.40
2024-05-09T18:20:48.007Z,4.50
2024-05-09T18:25:54.812Z,3.70
2024-05-09T18:31:00.751Z,4.30
2024-05-09T18:36:05.559Z,4.30
2024-05-09T18:41:13.115Z,4.07
2024-05-09T18:46:18.492Z,4.40
2024-05-09T18:51:23.476Z,4.10
2024-05-09T18:56:28.743Z,4.07
2024-05-09T19:01:33.809Z,4.30
2024-05-09T19:06:39.051Z,4.63
2024-05-09T19:11:43.846Z,4.37
2024-05-09T19:16:49.665Z,4.60
2024-05-09T19:21:54.394Z,4.40
2024-05-09T19:26:59.139Z,5.80
2024-05-09T19:32:04.050Z,4.50
2024-05-09T19:37:09.254Z,4.37
2024-05-09T19:42:14.159Z,4.80
2024-05-09T19:47:18.986Z,5.33
2024-05-09T19:52:23.718Z,4.73
2024-05-09T19:57:28.479Z,4.37
2024-05-09T20:02:33.290Z,4.63
2024-05-09T20:07:38.099Z,5.43
2024-05-09T20:12:42.838Z,4.43
2024-05-09T20:17:47.758Z,4.70
2024-05-09T20:22:52.581Z,3.80
2024-05-09T20:27:57.400Z,4.37
2024-05-09T20:33:03.746Z,3.77
2024-05-09T20:38:09.626Z,4.03
2024-05-09T20:43:14.351Z,4.63
2024-05-09T20:48:19.136Z,3.97
2024-05-09T20:53:23.862Z,4.20
2024-05-09T20:58:29.132Z,3.83
2024-05-09T21:03:35.825Z,4.43
2024-05-09T21:08:40.612Z,4.43
2024-05-09T21:13:45.399Z,4.80
2024-05-09T21:18:50.202Z,4.30
2024-05-09T21:23:55.014Z,5.50
2024-05-09T21:28:59.745Z,5.27
2024-05-09T21:34:04.583Z,4.27
2024-05-09T21:39:09.401Z,4.43
2024-05-09T21:44:14.107Z,4.80
2024-05-09T21:49:19.450Z,4.57
2024-05-09T21:54:24.258Z,5.17
2024-05-09T21:59:29.150Z,4.47
2024-05-09T22:04:34.594Z,5.03
2024-05-09T22:09:41.075Z,4.90
2024-05-09T22:14:45.799Z,4.80
2024-05-09T22:19:52.648Z,5.30
2024-05-09T22:24:57.493Z,5.10
2024-05-09T22:30:02.836Z,5.07
2024-05-09T22:35:10.869Z,5.17
2024-05-09T22:40:24.200Z,5.10
2024-05-09T22:45:37.279Z,4.63
2024-05-09T22:50:43.560Z,5.53
2024-05-09T22:55:48.237Z,5.20
2024-05-09T23:00:53.148Z,5.50
2024-05-09T23:05:57.950Z,4.97
2024-05-09T23:11:02.760Z,5.33
2024-05-09T23:16:08.009Z,5.47
2024-05-09T23:21:12.829Z,4.43
2024-05-09T23:26:17.573Z,4.80
2024-05-09T23:31:22.241Z,4.70
2024-05-09T23:36:29.549Z,4.50
2024-05-09T23:41:34.323Z,4.67
2024-05-09T23:46:39.139Z,3.97
2024-05-09T23:51:43.933Z,3.67
2024-05-09T23:56:48.693Z,4.00
